Time;durP1;ratioP1;P1;durP2;ratioP2;P2;SDS_P1;SDS_P2;PMS_P1;PMS_P2;Temp;Humidity;BMP_temperature;BMP_pressure;BME280_temperature;BME280_humidity;BME280_pressure;Samples;Min_cycle;Max_cycle;Signal;HPM_P1;HPM_P2
2021/10/01 00:05:19;;;;;;;5.75;4.35;;;22.90;55.70;;;;;;31175352;28;20054;-56
2021/10/01 00:20:21;;;;;;;5.43;4.07;;;22.80;55.40;;;;;;31259106;28;20045;-48
2021/10/01 00:35:23;;;;;;;74.03;41.90;;;22.80;55.40;;;;;;31225167;28;20100;-51
2021/10/01 00:50:25;;;;;;;42.38;26.20;;;22.60;54.00;;;;;;31225733;28;20164;-49
2021/10/01 01:05:50;;;;;;;6.22;5.07;;;22.40;51.90;;;;;;31246075;28;20057;-59
2021/10/01 01:20:55;;;;;;;3.58;2.28;;;22.30;51.70;;;;;;31230331;28;20138;-45
2021/10/01 01:36:00;;;;;;;1.50;1.20;;;22.50;50.60;;;;;;31247674;28;20089;-49
2021/10/01 01:51:03;;;;;;;17.90;11.52;;;22.50;49.90;;;;;;31248554;28;20081;-47
2021/10/01 02:06:06;;;;;;;12.77;8.95;;;22.30;46.20;;;;;;31248015;28;20052;-46
2021/10/01 02:21:09;;;;;;;8.63;7.32;;;22.20;44.40;;;;;;31247616;28;20065;-45
2021/10/01 02:36:12;;;;;;;10.35;6.90;;;22.20;45.10;;;;;;31263109;28;20042;-49
2021/10/01 02:51:19;;;;;;;7.32;5.78;;;22.70;43.80;;;;;;31267734;28;20207;-56
2021/10/01 03:06:23;;;;;;;36.35;26.00;;;23.00;45.10;;;;;;31265084;28;20069;-58
2021/10/01 03:21:26;;;;;;;13.93;11.30;;;22.80;46.90;;;;;;31262998;28;20041;-56
2021/10/01 03:36:28;;;;;;;11.77;8.73;;;22.60;47.00;;;;;;31262790;28;20052;-50
2021/10/01 03:51:30;;;;;;;10.40;8.10;;;22.50;44.00;;;;;;31208948;28;20062;-53
2021/10/01 04:06:33;;;;;;;18.80;10.45;;;22.40;42.80;;;;;;31136454;28;20130;-58
2021/10/01 04:21:35;;;;;;;12.88;9.98;;;22.20;42.00;;;;;;31142187;28;20072;-59
2021/10/01 04:36:37;;;;;;;17.50;11.25;;;22.20;41.70;;;;;;31251962;28;20041;-59
2021/10/01 04:51:39;;;;;;;43.38;16.48;;;22.20;43.60;;;;;;31248881;28;20515;-54
2021/10/01 05:06:42;;;;;;;53.22;33.28;;;22.60;47.40;;;;;;31247383;28;20129;-47
2021/10/01 05:21:44;;;;;;;50.60;33.15;;;23.10;49.50;;;;;;31251841;28;20137;-49
2021/10/01 05:36:48;;;;;;;40.42;25.80;;;23.00;49.90;;;;;;31250520;28;20046;-43
2021/10/01 05:51:59;;;;;;;30.95;19.55;;;23.00;49.30;;;;;;31266230;28;20049;-47
2021/10/01 06:07:01;;;;;;;38.60;23.95;;;23.00;49.50;;;;;;31260965;28;20049;-51
2021/10/01 06:22:06;;;;;;;35.22;25.05;;;22.80;49.50;;;;;;31276400;28;20046;-48
2021/10/01 06:37:09;;;;;;;26.70;18.13;;;22.70;51.80;;;;;;31275441;28;20045;-56
2021/10/01 08:23:59;;;;;;;13.73;8.52;;;22.40;49.20;;;;;;31242678;28;20038;-50
2021/10/01 08:39:01;;;;;;;16.60;7.55;;;22.40;48.30;;;;;;31241061;28;20042;-46
2021/10/01 08:54:04;;;;;;;11.55;6.47;;;22.40;46.20;;;;;;31240069;28;20092;-44
2021/10/01 09:09:06;;;;;;;9.10;6.05;;;22.60;47.10;;;;;;31239496;28;20097;-46
2021/10/01 09:24:11;;;;;;;11.60;5.90;;;22.50;46.80;;;;;;31238091;28;20102;-47
2021/10/01 09:39:28;;;;;;;8.45;5.03;;;22.30;48.10;;;;;;31236444;28;20429;-49
2021/10/01 09:54:31;;;;;;;6.93;4.57;;;22.20;48.00;;;;;;31235841;28;20069;-50
2021/10/01 10:09:53;;;;;;;7.63;4.55;;;22.10;48.10;;;;;;31234745;28;20097;-49
2021/10/01 10:24:55;;;;;;;6.57;4.50;;;22.10;47.80;;;;;;31234030;28;20074;-47
2021/10/01 10:40:21;;;;;;;9.20;3.67;;;22.00;46.80;;;;;;31207399;28;20506;-43
2021/10/01 10:55:28;;;;;;;6.45;4.22;;;22.00;47.20;;;;;;31256489;28;20603;-44
2021/10/01 11:10:47;;;;;;;6.18;3.90;;;21.90;47.80;;;;;;31265274;28;20050;-43
2021/10/01 11:25:50;;;;;;;10.88;3.97;;;21.90;45.10;;;;;;31254887;28;20042;-44
2021/10/01 11:41:08;;;;;;;6.13;3.58;;;22.00;45.40;;;;;;31249638;28;20057;-55
2021/10/01 11:56:12;;;;;;;13.30;3.88;;;22.30;46.70;;;;;;31239213;28;20050;-49
2021/10/01 12:11:30;;;;;;;12.57;4.28;;;22.40;47.10;;;;;;31264381;28;20574;-46
2021/10/01 12:26:38;;;;;;;9.18;3.60;;;21.50;41.80;;;;;;31254641;28;20042;-58
2021/10/01 12:41:40;;;;;;;11.75;2.90;;;22.20;40.30;;;;;;31230877;28;20053;-54
2021/10/01 12:56:42;;;;;;;25.45;16.65;;;22.70;37.40;;;;;;31251049;28;20049;-57
2021/10/01 13:11:50;;;;;;;5.03;3.80;;;22.50;38.00;;;;;;31251596;28;20096;-55
2021/10/01 13:26:52;;;;;;;23.63;14.10;;;22.40;37.30;;;;;;31251250;28;20046;-48
2021/10/01 13:41:54;;;;;;;17.58;12.68;;;22.20;33.60;;;;;;31252600;28;20538;-57
2021/10/01 13:56:58;;;;;;;14.85;9.98;;;22.40;38.10;;;;;;31249209;28;20110;-52
2021/10/01 14:12:01;;;;;;;19.88;11.30;;;22.30;39.30;;;;;;31246095;28;20050;-59
2021/10/01 14:27:04;;;;;;;12.70;8.38;;;21.70;35.90;;;;;;31257929;28;20061;-59
2021/10/01 14:42:07;;;;;;;11.13;6.63;;;21.70;37.70;;;;;;31273253;28;20046;-59
2021/10/01 14:57:09;;;;;;;21.67;6.72;;;21.80;40.60;;;;;;31267762;28;20041;-59
2021/10/01 15:12:11;;;;;;;16.55;5.63;;;22.10;39.20;;;;;;31262186;28;20101;-59
2021/10/01 15:27:13;;;;;;;7.38;4.95;;;22.70;40.40;;;;;;31254307;28;20046;-59
2021/10/01 15:42:15;;;;;;;8.23;4.43;;;22.80;41.20;;;;;;31257466;28;20105;-51
2021/10/01 15:57:18;;;;;;;4.82;4.18;;;22.70;42.10;;;;;;31257799;28;20045;-50
2021/10/01 16:12:20;;;;;;;4.75;3.95;;;22.60;42.70;;;;;;31255958;28;20077;-49
2021/10/01 16:27:22;;;;;;;6.97;4.57;;;22.50;43.30;;;;;;31249787;28;20411;-47
2021/10/01 16:42:25;;;;;;;17.98;4.85;;;22.50;43.40;;;;;;31237333;28;20057;-50
2021/10/01 16:57:28;;;;;;;11.30;4.82;;;22.60;45.10;;;;;;30852325;28;10000940;-47
2021/10/01 17:12:30;;;;;;;13.77;4.20;;;22.70;46.20;;;;;;31191772;28;20049;-43
2021/10/01 17:27:33;;;;;;;5.82;3.92;;;22.70;46.80;;;;;;31198785;28;20066;-45
2021/10/01 17:42:35;;;;;;;9.40;3.83;;;22.60;46.90;;;;;;31198464;28;20074;-42
2021/10/01 17:57:37;;;;;;;10.35;4.38;;;22.90;47.40;;;;;;31162333;28;20049;-49
2021/10/01 18:12:39;;;;;;;10.20;4.53;;;22.90;47.80;;;;;;31157096;28;20133;-42
2021/10/01 18:27:41;;;;;;;8.93;3.95;;;22.80;48.70;;;;;;31239035;28;20102;-53
2021/10/01 18:42:44;;;;;;;9.38;4.07;;;22.80;49.30;;;;;;31186444;28;20090;-47
2021/10/01 18:57:46;;;;;;;6.88;3.50;;;22.80;49.20;;;;;;31145280;28;20046;-43
2021/10/01 19:12:48;;;;;;;7.15;2.80;;;22.90;49.20;;;;;;31200809;28;20046;-43
2021/10/01 19:28:03;;;;;;;6.50;3.35;;;22.90;49.60;;;;;;30871357;28;10000335;-40
2021/10/01 19:43:05;;;;;;;18.98;5.35;;;22.80;50.30;;;;;;31176978;28;20062;-52
2021/10/01 19:58:09;;;;;;;12.93;4.53;;;22.90;50.70;;;;;;31221695;28;20042;-43
2021/10/01 20:13:11;;;;;;;10.02;3.47;;;22.90;50.20;;;;;;31181439;28;20043;-57
2021/10/01 21:44:48;;;;;;;33.38;24.60;;;22.80;50.30;;;;;;31237955;28;20042;-49
2021/10/01 21:59:53;;;;;;;27.58;21.73;;;22.90;50.20;;;;;;31202137;28;20057;-40
2021/10/01 22:15:07;;;;;;;71.20;51.17;;;22.80;50.10;;;;;;31222008;28;20053;-53
2021/10/01 22:30:11;;;;;;;33.67;26.00;;;22.50;46.50;;;;;;31163486;28;20495;-49
2021/10/01 22:45:14;;;;;;;30.70;23.10;;;22.70;49.30;;;;;;31220655;28;20062;-43
2021/10/01 23:00:21;;;;;;;29.45;20.67;;;22.70;49.60;;;;;;31245846;28;20061;-44
2021/10/01 23:46:12;;;;;;;20.95;17.27;;;22.80;50.20;;;;;;31180173;28;20065;-62
